createdAt,value
2022-07-28T00:01:21.279Z,66.60
2022-07-28T00:03:52.112Z,66.60
2022-07-28T00:06:21.498Z,66.50
2022-07-28T00:08:50.787Z,66.50
2022-07-28T00:11:20.104Z,66.50
2022-07-28T00:13:49.353Z,66.40
2022-07-28T00:16:18.834Z,66.50
2022-07-28T00:18:48.344Z,66.50
2022-07-28T00:21:19.415Z,66.40
2022-07-28T00:23:48.730Z,66.40
2022-07-28T00:26:18.064Z,66.40
2022-07-28T00:28:48.344Z,66.40
2022-07-28T00:31:17.906Z,66.40
2022-07-28T00:33:47.269Z,66.30
2022-07-28T00:36:16.492Z,66.30
2022-07-28T00:38:48.877Z,66.30
2022-07-28T00:41:20.736Z,66.20
2022-07-28T00:43:51.639Z,66.30
2022-07-28T00:46:23.199Z,66.20
2022-07-28T00:48:54.803Z,66.30
2022-07-28T00:51:26.864Z,66.30
2022-07-28T00:53:58.250Z,66.10
2022-07-28T00:56:27.589Z,66.20
2022-07-28T00:58:56.781Z,66.10
2022-07-28T01:01:25.987Z,66.10
2022-07-28T01:03:57.913Z,66.10
2022-07-28T01:07:03.959Z,66.10
2022-07-28T01:09:51.581Z,66.20
2022-07-28T01:12:31.731Z,66.10
2022-07-28T01:15:10.613Z,66.10
2022-07-28T01:17:46.275Z,66.40
2022-07-28T01:20:20.073Z,66.00
2022-07-28T01:23:06.680Z,66.00
2022-07-28T01:26:01.164Z,66.00
2022-07-28T01:28:45.825Z,66.00
2022-07-28T01:31:21.524Z,66.00
2022-07-28T01:33:56.520Z,66.00
2022-07-28T01:36:31.073Z,65.90
2022-07-28T01:39:01.559Z,65.90
2022-07-28T01:41:34.084Z,66.00
2022-07-28T01:44:07.359Z,66.70
2022-07-28T01:46:39.865Z,65.80
2022-07-28T01:49:11.298Z,65.90
2022-07-28T01:51:41.484Z,65.80
2022-07-28T01:54:12.597Z,65.90
2022-07-28T01:56:44.296Z,65.80
2022-07-28T01:59:14.398Z,65.80
2022-07-28T02:01:47.127Z,65.80
2022-07-28T02:04:19.824Z,65.60
2022-07-28T02:06:51.116Z,65.70
2022-07-28T02:09:22.642Z,65.70
2022-07-28T02:11:54.800Z,65.60
2022-07-28T02:14:25.423Z,65.60
2022-07-28T02:16:59.431Z,65.60
2022-07-28T02:19:30.971Z,65.60
2022-07-28T02:22:00.261Z,65.60
2022-07-28T02:24:31.565Z,65.50
2022-07-28T02:27:02.348Z,65.60
2022-07-28T02:29:52.727Z,65.50
2022-07-28T02:32:30.645Z,65.50
2022-07-28T02:35:04.808Z,65.40
2022-07-28T02:37:38.989Z,65.50
2022-07-28T02:40:15.127Z,65.40
2022-07-28T02:42:48.274Z,65.40
2022-07-28T02:45:19.859Z,65.40
2022-07-28T02:47:53.528Z,65.40
2022-07-28T02:50:27.415Z,65.30
2022-07-28T02:52:59.934Z,65.30
2022-07-28T02:55:30.204Z,65.30
2022-07-28T02:58:00.962Z,65.30
2022-07-28T03:00:34.705Z,65.20
2022-07-28T03:03:06.837Z,65.20
2022-07-28T03:05:37.469Z,65.30
2022-07-28T03:08:07.106Z,65.10
2022-07-28T03:10:36.305Z,65.20
2022-07-28T03:13:07.347Z,65.20
2022-07-28T03:15:37.552Z,65.20
2022-07-28T03:18:08.511Z,65.10
2022-07-28T03:20:37.665Z,65.10
2022-07-28T03:23:08.403Z,65.20
2022-07-28T03:25:43.261Z,65.10
2022-07-28T03:28:15.316Z,65.10
2022-07-28T03:30:48.773Z,65.10
2022-07-28T03:33:20.415Z,65.00
2022-07-28T03:35:53.248Z,65.00
2022-07-28T03:38:25.131Z,65.00
2022-07-28T03:40:57.058Z,64.90
2022-07-28T03:43:28.562Z,65.80
2022-07-28T03:45:57.914Z,64.90
2022-07-28T03:48:31.831Z,65.00
2022-07-28T03:51:01.022Z,64.90
2022-07-28T03:53:31.076Z,65.00
2022-07-28T03:56:00.232Z,64.80
2022-07-28T03:58:29.741Z,64.90
2022-07-28T04:00:59.483Z,65.00
2022-07-28T04:03:42.512Z,64.90
2022-07-28T04:06:15.535Z,65.00
2022-07-28T04:08:45.337Z,64.90
2022-07-28T04:11:14.480Z,64.90
2022-07-28T04:13:43.639Z,64.80
2022-07-28T04:16:12.817Z,64.80
2022-07-28T04:18:42.374Z,64.90
2022-07-28T04:21:11.651Z,64.80
2022-07-28T04:23:42.281Z,64.70
2022-07-28T04:26:11.557Z,64.60
2022-07-28T04:28:40.707Z,64.80
2022-07-28T04:31:09.936Z,64.70
2022-07-28T04:33:39.585Z,64.60
2022-07-28T04:36:08.849Z,64.80
2022-07-28T04:38:37.981Z,64.70
2022-07-28T04:41:08.634Z,64.70
2022-07-28T04:43:38.969Z,64.50
2022-07-28T04:46:10.905Z,64.50
2022-07-28T04:48:44.063Z,64.50
2022-07-28T04:51:13.376Z,64.50
2022-07-28T04:53:42.630Z,64.60
2022-07-28T04:56:13.363Z,64.50
2022-07-28T04:58:42.901Z,64.50
2022-07-28T05:01:12.450Z,64.40
2022-07-28T05:03:41.730Z,64.40
2022-07-28T05:06:10.881Z,64.40
2022-07-28T05:08:40.047Z,64.50
2022-07-28T05:11:09.165Z,64.40
2022-07-28T05:13:39.975Z,64.50
2022-07-28T05:16:09.227Z,64.50
2022-07-28T05:18:38.430Z,64.40
2022-07-28T05:21:07.618Z,64.40
2022-07-28T05:23:36.899Z,64.50
2022-07-28T05:26:07.310Z,64.50
2022-07-28T05:28:36.543Z,64.50
2022-07-28T05:31:08.099Z,64.40
2022-07-28T05:33:38.000Z,64.50
2022-07-28T05:36:07.728Z,64.50
2022-07-28T05:38:36.895Z,64.50
2022-07-28T05:41:06.688Z,64.30
2022-07-28T05:43:38.134Z,64.50
2022-07-28T05:46:08.871Z,64.40
2022-07-28T05:48:38.803Z,64.50
2022-07-28T05:51:08.045Z,64.40
2022-07-28T05:53:37.489Z,64.40
2022-07-28T05:56:07.741Z,64.50
2022-07-28T05:58:37.037Z,64.50
2022-07-28T06:01:07.882Z,64.50
2022-07-28T06:03:41.889Z,64.50
2022-07-28T06:06:15.854Z,64.50
2022-07-28T06:08:47.189Z,64.50
2022-07-28T06:11:22.275Z,64.50
2022-07-28T06:13:53.318Z,64.60
2022-07-28T06:16:24.544Z,64.50
2022-07-28T06:18:54.078Z,64.50
2022-07-28T06:21:25.117Z,64.60
2022-07-28T06:23:54.293Z,64.60
2022-07-28T06:26:23.888Z,64.60
2022-07-28T06:28:53.593Z,64.60
2022-07-28T06:31:24.261Z,64.60
2022-07-28T06:33:53.550Z,64.60
2022-07-28T06:36:22.776Z,64.70
2022-07-28T06:38:51.902Z,64.60
2022-07-28T06:41:21.204Z,64.70
2022-07-28T06:43:52.338Z,64.70
2022-07-28T06:46:22.352Z,64.70
2022-07-28T06:48:53.006Z,64.70
2022-07-28T06:51:23.453Z,64.60
2022-07-28T06:53:53.215Z,64.60
2022-07-28T06:56:22.507Z,64.70
2022-07-28T06:58:52.716Z,64.70
2022-07-28T07:01:21.919Z,64.70
2022-07-28T07:03:52.706Z,64.60
2022-07-28T07:06:21.920Z,64.70
2022-07-28T07:08:51.083Z,64.60
2022-07-28T07:11:20.193Z,64.60
2022-07-28T07:13:49.308Z,64.60
2022-07-28T07:16:18.754Z,64.60
2022-07-28T07:18:48.874Z,64.60
2022-07-28T07:21:19.605Z,64.60
2022-07-28T07:23:49.063Z,64.60
2022-07-28T07:26:18.222Z,64.60
2022-07-28T07:28:47.959Z,64.60
2022-07-28T07:31:17.415Z,65.40
2022-07-28T07:33:46.729Z,64.70
2022-07-28T07:36:16.017Z,64.60
2022-07-28T07:38:46.880Z,64.70
2022-07-28T07:41:16.102Z,64.70
2022-07-28T07:43:47.725Z,64.70
2022-07-28T07:46:19.156Z,64.60
2022-07-28T07:48:48.375Z,64.70
2022-07-28T07:51:17.865Z,64.70
2022-07-28T07:53:48.517Z,64.70
2022-07-28T07:56:18.566Z,64.80
2022-07-28T07:58:47.769Z,64.80
2022-07-28T08:01:17.223Z,64.70
2022-07-28T08:03:50.164Z,64.70
2022-07-28T08:06:26.253Z,64.80
2022-07-28T08:08:57.175Z,64.90
2022-07-28T08:11:26.339Z,64.90
2022-07-28T08:13:55.505Z,64.90
2022-07-28T08:16:24.740Z,64.90
2022-07-28T08:18:53.970Z,64.90
2022-07-28T08:21:23.145Z,64.90
2022-07-28T08:23:52.363Z,65.00
2022-07-28T08:26:23.036Z,65.00
2022-07-28T08:28:52.367Z,64.90
2022-07-28T08:31:22.371Z,65.00
2022-07-28T08:33:53.415Z,65.00
2022-07-28T08:36:24.297Z,65.00
2022-07-28T08:38:53.469Z,65.00
2022-07-28T08:41:33.699Z,65.00
2022-07-28T08:44:05.165Z,65.00
2022-07-28T08:46:37.438Z,65.00
2022-07-28T08:49:09.782Z,64.90
2022-07-28T08:51:40.945Z,64.90
2022-07-28T08:54:12.048Z,64.90
2022-07-28T08:56:47.859Z,64.90
2022-07-28T08:59:17.622Z,64.90
2022-07-28T09:01:47.978Z,64.90
2022-07-28T09:04:17.921Z,64.80
2022-07-28T09:06:49.065Z,64.80
2022-07-28T09:09:18.286Z,64.80
2022-07-28T09:11:48.971Z,64.90
2022-07-28T09:14:18.119Z,64.80
2022-07-28T09:16:47.323Z,64.90
2022-07-28T09:19:16.777Z,64.90
2022-07-28T09:21:46.494Z,64.90
2022-07-28T09:24:34.642Z,64.90
2022-07-28T09:27:08.028Z,64.90
2022-07-28T09:29:38.725Z,64.90
2022-07-28T09:32:09.170Z,64.90
2022-07-28T09:35:35.733Z,65.00
2022-07-28T09:38:05.017Z,65.00
2022-07-28T09:40:34.182Z,64.90
2022-07-28T09:43:04.795Z,64.90
2022-07-28T09:45:34.092Z,64.90
2022-07-28T09:48:13.425Z,65.00
2022-07-28T09:50:43.937Z,65.00
2022-07-28T09:53:27.403Z,65.00
2022-07-28T09:55:59.586Z,65.10
2022-07-28T09:58:30.990Z,65.10
2022-07-28T10:01:11.526Z,65.00
2022-07-28T10:03:43.236Z,65.00
2022-07-28T10:06:16.843Z,65.10
2022-07-28T10:08:48.027Z,65.00
2022-07-28T10:11:18.658Z,65.10
2022-07-28T10:14:00.134Z,65.10
2022-07-28T10:16:31.060Z,65.10
2022-07-28T10:19:02.332Z,65.10
2022-07-28T10:21:35.021Z,65.20
2022-07-28T10:24:07.262Z,65.10
2022-07-28T10:26:40.098Z,65.20
2022-07-28T10:29:15.369Z,65.20
2022-07-28T10:31:50.231Z,65.20
2022-07-28T10:34:24.335Z,65.20
2022-07-28T10:36:57.117Z,65.30
2022-07-28T10:39:30.645Z,66.00
2022-07-28T10:42:00.656Z,65.30
2022-07-28T10:44:32.703Z,65.30
2022-07-28T10:47:02.278Z,65.30
2022-07-28T10:49:32.572Z,65.40
2022-07-28T10:52:08.803Z,65.40
2022-07-28T10:54:57.704Z,65.30
2022-07-28T10:57:28.174Z,65.30
2022-07-28T11:00:20.855Z,65.30
2022-07-28T11:02:59.113Z,65.30
2022-07-28T11:05:39.320Z,65.30
2022-07-28T11:08:10.301Z,66.10
2022-07-28T11:10:50.759Z,65.30
2022-07-28T11:13:28.893Z,65.30
2022-07-28T11:16:19.496Z,65.30
2022-07-28T11:19:38.514Z,65.30
2022-07-28T11:22:23.141Z,65.40
2022-07-28T11:25:22.161Z,65.30
2022-07-28T11:28:07.933Z,65.40
2022-07-28T11:30:54.528Z,65.40
2022-07-28T11:33:27.611Z,65.40
2022-07-28T11:36:02.306Z,65.40
2022-07-28T11:38:31.709Z,65.60
2022-07-28T11:41:00.996Z,65.40
2022-07-28T11:43:39.523Z,65.40
2022-07-28T11:46:40.014Z,65.40
2022-07-28T11:49:19.773Z,65.50
2022-07-28T11:52:11.676Z,65.40
2022-07-28T11:54:42.602Z,65.50
2022-07-28T11:57:12.180Z,65.40
2022-07-28T11:59:47.216Z,65.40
2022-07-28T12:02:20.579Z,65.40
2022-07-28T12:04:59.627Z,65.40
2022-07-28T12:07:32.438Z,64.70
2022-07-28T12:10:02.309Z,65.40
2022-07-28T12:12:31.658Z,65.40
2022-07-28T12:15:06.736Z,65.50
2022-07-28T12:17:38.026Z,65.40
2022-07-28T12:20:14.201Z,65.50
2022-07-28T12:23:00.506Z,65.40
2022-07-28T12:25:30.964Z,65.40
2022-07-28T12:28:14.473Z,65.40
2022-07-28T12:30:43.826Z,65.40
2022-07-28T12:33:26.100Z,65.40
2022-07-28T12:36:01.713Z,65.40
2022-07-28T12:38:31.328Z,65.40
2022-07-28T12:41:00.557Z,65.40
2022-07-28T12:43:31.164Z,65.40
2022-07-28T12:46:00.439Z,65.50
2022-07-28T12:48:29.984Z,65.40
2022-07-28T12:51:02.023Z,65.50
2022-07-28T12:53:31.406Z,65.50
2022-07-28T12:56:04.212Z,65.40
2022-07-28T12:58:36.216Z,65.40
2022-07-28T13:01:09.132Z,65.40
2022-07-28T13:03:50.651Z,65.50
2022-07-28T13:06:24.345Z,65.40
2022-07-28T13:08:55.338Z,65.40
2022-07-28T13:11:47.627Z,65.30
2022-07-28T13:14:17.462Z,65.30
2022-07-28T13:16:59.096Z,65.30
2022-07-28T13:19:28.698Z,65.30
2022-07-28T13:22:04.092Z,65.40
2022-07-28T13:24:36.207Z,65.30
2022-07-28T13:27:07.091Z,65.30
2022-07-28T13:29:36.599Z,65.40
2022-07-28T13:32:06.341Z,65.30
2022-07-28T13:34:35.736Z,65.30
2022-07-28T13:37:06.296Z,65.40
2022-07-28T13:39:35.576Z,65.30
2022-07-28T13:42:05.284Z,65.30
2022-07-28T13:44:36.075Z,65.30
2022-07-28T13:47:06.889Z,65.30
2022-07-28T13:49:37.897Z,65.20
2022-07-28T13:52:13.082Z,65.30
2022-07-28T13:54:42.566Z,65.30
2022-07-28T13:57:12.429Z,65.30
2022-07-28T13:59:43.864Z,65.30
2022-07-28T14:02:15.299Z,65.20
2022-07-28T14:04:50.039Z,65.30
2022-07-28T14:07:21.662Z,65.40
2022-07-28T14:09:51.560Z,65.40
2022-07-28T14:12:21.252Z,65.40
2022-07-28T14:14:51.572Z,65.20
2022-07-28T14:20:13.458Z,65.30
2022-07-28T14:22:44.544Z,65.40
2022-07-28T14:25:19.736Z,65.30
2022-07-28T14:27:51.776Z,65.30
2022-07-28T14:30:21.723Z,65.30
2022-07-28T14:32:51.158Z,65.30
2022-07-28T14:35:21.047Z,65.50
2022-07-28T14:38:41.874Z,65.30
2022-07-28T14:40:41.892Z,65.30
2022-07-28T14:43:11.225Z,65.30
2022-07-28T14:45:50.596Z,65.30
2022-07-28T14:48:31.055Z,65.30
2022-07-28T14:51:01.411Z,65.30
2022-07-28T14:53:32.140Z,65.30
2022-07-28T14:56:04.957Z,65.30
2022-07-28T14:58:34.514Z,65.20
2022-07-28T15:01:03.702Z,66.10
2022-07-28T15:03:36.471Z,65.30
2022-07-28T15:06:06.124Z,65.30
2022-07-28T15:08:36.664Z,65.30
2022-07-28T15:11:05.929Z,65.20
2022-07-28T15:13:35.155Z,65.30
2022-07-28T15:16:04.447Z,65.20
2022-07-28T15:18:33.582Z,65.30
2022-07-28T15:21:03.021Z,65.20
2022-07-28T15:23:32.204Z,65.30
2022-07-28T15:26:03.038Z,65.30
2022-07-28T15:28:33.131Z,65.30
2022-07-28T15:31:02.494Z,65.20
2022-07-28T15:33:39.877Z,65.20
2022-07-28T15:36:17.275Z,65.20
2022-07-28T15:38:48.882Z,65.30
2022-07-28T15:41:20.406Z,65.30
2022-07-28T15:43:49.575Z,65.10
2022-07-28T15:46:18.798Z,65.30
2022-07-28T15:48:47.971Z,65.30
2022-07-28T15:51:18.552Z,65.30
2022-07-28T15:53:56.503Z,65.30
2022-07-28T15:56:28.474Z,65.40
2022-07-28T15:58:58.511Z,65.10
2022-07-28T16:01:27.798Z,65.10
2022-07-28T16:03:58.118Z,65.30
2022-07-28T16:06:48.299Z,65.10
2022-07-28T16:09:17.607Z,65.10
2022-07-28T16:11:48.235Z,65.20
2022-07-28T16:14:19.914Z,65.00
2022-07-28T16:16:49.188Z,65.10
2022-07-28T16:19:46.044Z,65.30
2022-07-28T16:22:08.070Z,65.10
2022-07-28T16:24:37.360Z,65.10
2022-07-28T16:27:07.972Z,65.20
2022-07-28T16:29:38.015Z,65.20
2022-07-28T16:32:07.729Z,65.10
2022-07-28T16:34:37.174Z,65.20
2022-07-28T16:37:06.457Z,65.10
2022-07-28T16:39:36.300Z,65.20
2022-07-28T16:42:08.451Z,65.10
2022-07-28T16:44:40.292Z,65.10
2022-07-28T16:47:09.606Z,65.30
2022-07-28T16:49:42.169Z,65.20
2022-07-28T16:52:15.498Z,65.20
2022-07-28T16:54:44.651Z,65.20
2022-07-28T16:57:18.033Z,65.20
2022-07-28T16:59:48.061Z,65.20
2022-07-28T17:02:19.274Z,65.20
2022-07-28T17:04:48.923Z,65.20
2022-07-28T17:07:18.580Z,66.00
2022-07-28T17:09:47.848Z,65.20
2022-07-28T17:12:18.564Z,65.20
2022-07-28T17:14:47.844Z,65.20
2022-07-28T17:17:17.037Z,65.20
2022-07-28T17:19:47.934Z,65.20
2022-07-28T17:22:17.838Z,65.20
2022-07-28T17:24:48.445Z,65.30
2022-07-28T17:30:09.424Z,65.20
2022-07-28T17:32:38.774Z,65.20
2022-07-28T17:35:31.931Z,65.30
2022-07-28T17:38:00.624Z,65.30
2022-07-28T17:40:29.877Z,65.30
2022-07-28T17:43:00.530Z,65.30
2022-07-28T17:45:29.833Z,65.30
2022-07-28T17:47:58.985Z,65.40
2022-07-28T17:50:28.261Z,65.40
2022-07-28T17:52:57.479Z,65.40
2022-07-28T17:55:39.191Z,65.30
2022-07-28T17:58:29.651Z,65.30
2022-07-28T18:01:09.752Z,65.40
2022-07-28T18:03:57.841Z,65.40
2022-07-28T18:06:32.559Z,65.40
2022-07-28T18:09:06.294Z,65.40
2022-07-28T18:11:55.514Z,65.40
2022-07-28T18:14:30.062Z,65.40
2022-07-28T18:16:59.951Z,65.40
2022-07-28T18:19:29.802Z,65.50
2022-07-28T18:21:59.017Z,65.60
2022-07-28T18:24:28.986Z,65.50
2022-07-28T18:26:58.240Z,65.60
2022-07-28T18:29:38.191Z,65.50
2022-07-28T18:32:09.674Z,65.60
2022-07-28T18:34:40.531Z,65.60
2022-07-28T18:37:09.738Z,65.60
2022-07-28T18:39:39.319Z,65.60
2022-07-28T18:42:08.747Z,65.70
2022-07-28T18:44:39.443Z,65.60
2022-07-28T18:47:10.688Z,65.70
2022-07-28T18:49:39.925Z,65.60
2022-07-28T18:52:09.236Z,65.70
2022-07-28T18:54:38.382Z,65.70
2022-07-28T18:57:07.647Z,65.70
2022-07-28T18:59:43.896Z,65.70
2022-07-28T19:02:15.273Z,65.70
2022-07-28T19:04:44.967Z,65.80
2022-07-28T19:07:15.064Z,66.60
2022-07-28T19:09:44.643Z,65.80
2022-07-28T19:12:13.884Z,65.80
2022-07-28T19:14:44.472Z,65.70
2022-07-28T19:17:14.108Z,65.80
2022-07-28T19:19:43.473Z,65.90
2022-07-28T19:22:12.674Z,65.80
2022-07-28T19:24:41.882Z,65.80
2022-07-28T19:27:11.856Z,65.90
2022-07-28T19:29:41.049Z,65.80
2022-07-28T19:32:11.793Z,65.80
2022-07-28T19:34:43.084Z,66.00
2022-07-28T19:37:16.824Z,65.90
2022-07-28T19:39:47.045Z,65.90
2022-07-28T19:42:16.311Z,66.00
2022-07-28T19:44:46.003Z,66.00
2022-07-28T19:47:16.570Z,66.00
2022-07-28T19:49:45.766Z,66.10
2022-07-28T19:52:15.080Z,66.00
2022-07-28T19:54:44.345Z,66.00
2022-07-28T19:57:20.566Z,66.00
2022-07-28T19:59:49.812Z,66.10
2022-07-28T20:02:20.395Z,66.00
2022-07-28T20:04:49.610Z,66.00
2022-07-28T20:07:18.923Z,66.10
2022-07-28T20:09:48.121Z,66.10
2022-07-28T20:12:19.417Z,66.10
2022-07-28T20:14:48.735Z,66.10
2022-07-28T20:17:36.977Z,66.20
2022-07-28T20:20:08.746Z,66.10
2022-07-28T20:22:38.376Z,66.10
2022-07-28T20:25:09.532Z,66.20
2022-07-28T20:27:40.655Z,66.30
2022-07-28T20:30:11.819Z,66.30
2022-07-28T20:32:44.321Z,66.30
2022-07-28T20:35:14.030Z,66.20
2022-07-28T20:37:43.187Z,66.30
2022-07-28T20:40:13.020Z,66.40
2022-07-28T20:42:42.306Z,66.30
2022-07-28T20:45:11.961Z,66.30
2022-07-28T20:47:42.531Z,66.40
2022-07-28T20:50:13.065Z,66.40
2022-07-28T20:52:42.318Z,66.50
2022-07-28T20:55:12.613Z,66.50
2022-07-28T20:57:42.118Z,66.50
2022-07-28T21:00:22.817Z,66.50
2022-07-28T21:02:53.643Z,66.40
2022-07-28T21:05:34.775Z,66.30
2022-07-28T21:08:09.583Z,66.40
2022-07-28T21:10:45.653Z,66.30
2022-07-28T21:13:15.268Z,66.40
2022-07-28T21:15:44.695Z,66.40
2022-07-28T21:18:15.544Z,66.60
2022-07-28T21:20:44.749Z,66.40
2022-07-28T21:23:13.869Z,66.40
2022-07-28T21:25:45.087Z,66.30
2022-07-28T21:28:31.966Z,66.40
2022-07-28T21:31:01.836Z,66.30
2022-07-28T21:33:32.544Z,66.30
2022-07-28T21:36:01.803Z,66.30
2022-07-28T21:38:30.969Z,66.20
2022-07-28T21:41:00.261Z,66.30
2022-07-28T21:43:29.519Z,66.30
2022-07-28T21:45:58.688Z,66.40
2022-07-28T21:48:27.931Z,66.30
2022-07-28T21:50:58.637Z,66.40
2022-07-28T21:53:27.948Z,66.30
2022-07-28T21:55:57.287Z,66.30
2022-07-28T21:58:26.432Z,66.40
2022-07-28T22:00:59.443Z,66.30
2022-07-28T22:03:31.820Z,66.30
2022-07-28T22:06:02.587Z,66.30
2022-07-28T22:08:31.835Z,66.40
2022-07-28T22:11:01.578Z,66.40
2022-07-28T22:13:31.147Z,66.40
2022-07-28T22:16:00.410Z,66.40
2022-07-28T22:18:29.692Z,66.40
2022-07-28T22:20:58.808Z,66.30
2022-07-28T22:23:30.196Z,66.30
2022-07-28T22:25:59.516Z,66.30
2022-07-28T22:28:30.634Z,66.40
2022-07-28T22:31:09.168Z,66.40
2022-07-28T22:33:39.246Z,66.40
2022-07-28T22:36:09.287Z,66.40
2022-07-28T22:38:40.128Z,66.40
2022-07-28T22:41:09.782Z,66.40
2022-07-28T22:43:39.513Z,66.40
2022-07-28T22:46:11.305Z,66.50
2022-07-28T22:48:40.938Z,66.40
2022-07-28T22:51:12.022Z,66.50
2022-07-28T22:53:42.907Z,66.40
2022-07-28T22:58:58.793Z,66.40
2022-07-28T23:01:28.143Z,66.50
2022-07-28T23:03:57.809Z,66.40
2022-07-28T23:06:27.658Z,66.50
2022-07-28T23:08:58.244Z,66.50
2022-07-28T23:11:27.562Z,66.50
2022-07-28T23:13:56.749Z,66.50
2022-07-28T23:16:26.010Z,66.50
2022-07-28T23:18:55.368Z,66.50
2022-07-28T23:21:24.764Z,66.40
2022-07-28T23:23:53.950Z,66.50
2022-07-28T23:26:24.696Z,66.50
2022-07-28T23:28:53.951Z,66.50
2022-07-28T23:31:23.381Z,66.60
2022-07-28T23:33:55.611Z,66.60
2022-07-28T23:36:27.890Z,66.50
2022-07-28T23:38:58.071Z,66.60
2022-07-28T23:41:29.158Z,66.50
2022-07-28T23:43:58.335Z,66.50
2022-07-28T23:46:27.610Z,66.50
2022-07-28T23:48:56.941Z,66.50
2022-07-28T23:51:41.124Z,66.50
2022-07-28T23:54:15.543Z,66.60
2022-07-28T23:56:46.635Z,66.50
2022-07-28T23:59:16.050Z,66.50
